Time;durP1;ratioP1;P1;durP2;ratioP2;P2;SDS_P1;SDS_P2;PMS_P1;PMS_P2;Temp;Humidity;BMP_temperature;BMP_pressure;BME280_temperature;BME280_humidity;BME280_pressure;Samples;Min_cycle;Max_cycle;Signal;HPM_P1;HPM_P2
2022/01/16 00:00:49;;;;;;;42.75;19.38;;;1.80;83.50;;;;;;4976890;28;20038;-68
2022/01/16 00:05:59;;;;;;;43.87;19.53;;;1.80;83.50;;;;;;4975818;28;20042;-68
2022/01/16 00:08:24;;;;;;;36.22;18.75;;;1.80;83.50;;;;;;4974121;28;20035;-68
2022/01/16 00:10:50;;;;;;;41.88;19.05;;;1.80;83.50;;;;;;4974682;28;20026;-68
2022/01/16 00:13:15;;;;;;;41.03;19.20;;;1.80;83.60;;;;;;4979037;28;20046;-68
2022/01/16 00:15:44;;;;;;;43.20;18.48;;;1.80;83.70;;;;;;4974792;28;20498;-67
2022/01/16 00:18:21;;;;;;;46.22;20.45;;;1.80;83.50;;;;;;4974157;28;20485;-68
2022/01/16 00:20:47;;;;;;;38.45;19.20;;;1.80;83.60;;;;;;4972910;28;20035;-67
2022/01/16 00:23:13;;;;;;;37.83;19.38;;;1.80;83.60;;;;;;4977545;28;20042;-68
2022/01/16 00:25:39;;;;;;;38.90;19.08;;;1.80;83.50;;;;;;4972980;28;20045;-66
2022/01/16 00:28:04;;;;;;;37.88;18.08;;;1.80;83.40;;;;;;4973800;28;20049;-67
2022/01/16 00:30:30;;;;;;;38.97;19.20;;;1.80;83.40;;;;;;4974875;28;20045;-68
2022/01/16 00:33:00;;;;;;;35.05;17.42;;;1.70;83.30;;;;;;4977600;28;20125;-68
2022/01/16 00:35:26;;;;;;;34.05;17.52;;;1.70;83.30;;;;;;4974410;28;20081;-67
2022/01/16 00:37:52;;;;;;;42.03;19.85;;;1.70;83.40;;;;;;4975181;28;20030;-68
2022/01/16 00:40:18;;;;;;;37.20;18.45;;;1.70;83.50;;;;;;4972495;28;20043;-68
2022/01/16 00:42:44;;;;;;;35.85;19.00;;;1.70;83.50;;;;;;4976602;28;20039;-68
2022/01/16 00:45:10;;;;;;;38.83;19.42;;;1.70;83.80;;;;;;4974324;28;20045;-67
2022/01/16 00:47:35;;;;;;;37.60;19.25;;;1.70;83.70;;;;;;4975469;28;20445;-68
2022/01/16 00:50:01;;;;;;;34.00;18.23;;;1.70;83.70;;;;;;4972266;28;20035;-68
2022/01/16 00:52:27;;;;;;;36.85;19.23;;;1.70;83.60;;;;;;4975328;28;20042;-68
2022/01/16 00:54:54;;;;;;;38.92;18.95;;;1.70;83.70;;;;;;4977516;28;20062;-66
2022/01/16 00:57:20;;;;;;;42.20;20.27;;;1.70;83.50;;;;;;4976660;28;20449;-68
2022/01/16 00:59:46;;;;;;;39.97;19.95;;;1.70;83.60;;;;;;4975628;28;20039;-67
2022/01/16 01:02:11;;;;;;;36.78;18.73;;;1.70;83.60;;;;;;4976099;28;20035;-67
2022/01/16 01:04:37;;;;;;;39.15;19.67;;;1.70;84.60;;;;;;4975074;28;20023;-67
2022/01/16 01:07:03;;;;;;;39.58;20.42;;;1.60;83.70;;;;;;4974848;28;20026;-67
2022/01/16 01:09:29;;;;;;;47.83;20.55;;;1.60;83.80;;;;;;4974016;28;20045;-67
2022/01/16 01:11:54;;;;;;;39.90;19.50;;;1.60;83.90;;;;;;4973671;28;20497;-68
2022/01/16 01:14:38;;;;;;;35.05;19.23;;;1.60;83.90;;;;;;4973214;28;20722;-68
2022/01/16 01:17:07;;;;;;;37.00;18.90;;;1.60;83.90;;;;;;4976565;28;20740;-68
2022/01/16 01:19:33;;;;;;;39.70;20.25;;;1.60;84.00;;;;;;4975904;28;22158;-69
2022/01/16 01:21:59;;;;;;;40.85;20.02;;;1.60;83.90;;;;;;4974923;28;20034;-68
2022/01/16 01:24:26;;;;;;;39.95;19.02;;;1.60;83.90;;;;;;4979523;28;20033;-67
2022/01/16 01:27:21;;;;;;;34.83;19.38;;;1.60;83.70;;;;;;4976437;28;20492;-66
2022/01/16 01:29:41;;;;;;;36.63;19.63;;;1.60;83.70;;;;;;4975578;28;20529;-68
2022/01/16 01:32:07;;;;;;;37.72;19.40;;;1.60;83.70;;;;;;4974573;28;20039;-68
2022/01/16 01:34:33;;;;;;;38.53;20.33;;;1.60;83.70;;;;;;4975800;28;20089;-68
2022/01/16 01:36:58;;;;;;;37.45;19.23;;;1.60;83.70;;;;;;4974040;28;20034;-68
2022/01/16 01:39:24;;;;;;;34.13;19.42;;;1.60;83.90;;;;;;4974999;28;20034;-68
2022/01/16 01:41:55;;;;;;;37.83;19.45;;;1.60;84.70;;;;;;4972747;28;20636;-67
2022/01/16 01:52:35;;;;;;;34.63;19.80;;;1.60;84.00;;;;;;4974475;28;20908;-66
2022/01/16 01:55:01;;;;;;;35.95;18.77;;;1.60;83.90;;;;;;4973110;28;20073;-67
2022/01/16 01:57:26;;;;;;;36.25;20.45;;;1.60;83.90;;;;;;4974284;28;20045;-66
2022/01/16 01:59:52;;;;;;;35.00;19.02;;;1.60;83.90;;;;;;4971432;28;20050;-68
2022/01/16 02:02:17;;;;;;;36.83;19.70;;;1.60;83.90;;;;;;4994068;28;20176;-68
2022/01/16 02:04:43;;;;;;;36.92;20.30;;;1.60;84.00;;;;;;4973935;28;20101;-68
2022/01/16 02:07:09;;;;;;;39.20;21.25;;;1.60;84.10;;;;;;4973188;28;20038;-67
2022/01/16 02:09:34;;;;;;;37.95;20.00;;;1.60;84.00;;;;;;4973836;28;20030;-67
2022/01/16 02:12:01;;;;;;;38.30;20.70;;;1.60;84.10;;;;;;4972878;28;20038;-68
2022/01/16 02:14:32;;;;;;;37.42;19.83;;;1.60;84.20;;;;;;4973412;28;20038;-66
2022/01/16 02:28:19;;;;;;;41.38;22.27;;;1.70;84.20;;;;;;4975815;28;20557;-68
2022/01/16 02:36:30;;;;;;;42.10;21.60;;;1.70;84.00;;;;;;4959512;28;20034;-67
2022/01/16 02:39:01;;;;;;;41.10;22.90;;;1.70;83.90;;;;;;4972306;28;20034;-68
2022/01/16 02:41:27;;;;;;;42.17;22.83;;;1.70;83.90;;;;;;4974533;28;20043;-67
2022/01/16 02:43:55;;;;;;;42.00;23.13;;;1.70;83.70;;;;;;4975208;28;20045;-68
2022/01/16 02:48:54;;;;;;;44.45;23.02;;;1.70;83.70;;;;;;4974770;28;20418;-68
2022/01/16 02:51:21;;;;;;;42.05;23.00;;;1.70;83.70;;;;;;4975418;28;20088;-68
2022/01/16 02:53:48;;;;;;;41.05;22.65;;;1.70;83.70;;;;;;4973240;28;20042;-67
2022/01/16 02:56:14;;;;;;;45.15;23.55;;;1.70;83.60;;;;;;4973104;28;20105;-68
2022/01/16 02:58:42;;;;;;;46.22;22.95;;;1.70;83.70;;;;;;4974861;28;20046;-68
2022/01/16 03:01:08;;;;;;;39.95;21.95;;;1.60;83.60;;;;;;4972323;28;20038;-65
2022/01/16 03:03:34;;;;;;;43.22;22.13;;;1.60;83.70;;;;;;4974562;28;20035;-68
2022/01/16 03:06:00;;;;;;;43.95;22.70;;;1.60;83.70;;;;;;4976754;28;20559;-68
2022/01/16 03:08:25;;;;;;;47.50;23.95;;;1.60;83.80;;;;;;4972800;28;20502;-67
2022/01/16 03:11:38;;;;;;;43.85;23.48;;;1.60;83.70;;;;;;4972100;28;20928;-68
2022/01/16 03:13:48;;;;;;;44.17;23.67;;;1.60;83.70;;;;;;4969153;28;20757;-67
2022/01/16 03:16:18;;;;;;;48.80;23.90;;;1.70;83.80;;;;;;4975246;28;20085;-67
2022/01/16 03:21:55;;;;;;;40.28;21.65;;;1.70;83.60;;;;;;4931180;28;20039;-68
2022/01/16 03:24:42;;;;;;;45.88;23.83;;;1.70;83.60;;;;;;4971896;28;20161;-68
2022/01/16 03:27:09;;;;;;;52.13;24.77;;;1.60;83.90;;;;;;4980026;28;20034;-67
2022/01/16 03:29:35;;;;;;;45.70;24.63;;;1.60;83.70;;;;;;4980023;28;20053;-68
2022/01/16 03:32:03;;;;;;;49.15;23.85;;;1.60;83.90;;;;;;4980635;28;20031;-68
2022/01/16 03:34:28;;;;;;;46.67;24.73;;;1.60;83.90;;;;;;4981316;28;20030;-67
2022/01/16 03:36:54;;;;;;;48.10;25.15;;;1.60;83.90;;;;;;4980499;28;20085;-68
2022/01/16 03:39:20;;;;;;;50.95;25.52;;;1.60;83.90;;;;;;4979743;28;20176;-67
2022/01/16 03:41:46;;;;;;;48.42;24.38;;;1.70;84.00;;;;;;4980649;28;20034;-68
2022/01/16 03:44:12;;;;;;;52.25;26.30;;;1.70;84.00;;;;;;4980135;28;20612;-69
2022/01/16 03:46:40;;;;;;;52.50;26.40;;;1.70;84.00;;;;;;4979629;28;20516;-68
2022/01/16 03:49:18;;;;;;;53.28;25.65;;;1.70;84.00;;;;;;4985588;28;20101;-68
2022/01/16 03:51:47;;;;;;;49.83;25.17;;;1.70;84.00;;;;;;4978755;28;20054;-68
2022/01/16 03:54:16;;;;;;;51.65;25.67;;;1.70;84.10;;;;;;4981289;28;20035;-68
2022/01/16 03:56:42;;;;;;;50.72;26.20;;;1.60;84.00;;;;;;4978738;28;20038;-68
2022/01/16 03:59:08;;;;;;;59.47;27.95;;;1.70;84.20;;;;;;4978574;28;20151;-68
2022/01/16 04:01:34;;;;;;;59.05;27.40;;;1.70;84.20;;;;;;4979764;28;20026;-68
2022/01/16 04:04:00;;;;;;;53.30;26.20;;;1.70;84.20;;;;;;4979357;28;20093;-68
2022/01/16 04:06:26;;;;;;;55.30;26.55;;;1.70;84.20;;;;;;4979039;28;21319;-68
2022/01/16 04:08:54;;;;;;;54.42;27.15;;;1.70;84.20;;;;;;4979444;28;20031;-68
2022/01/16 04:11:21;;;;;;;59.90;28.13;;;1.70;84.20;;;;;;4979489;28;20485;-67
2022/01/16 04:13:51;;;;;;;54.80;28.40;;;1.70;84.30;;;;;;4978839;28;20058;-68
2022/01/16 04:16:19;;;;;;;57.50;28.38;;;1.70;84.30;;;;;;4980044;28;20034;-67
2022/01/16 04:18:49;;;;;;;59.55;28.50;;;1.70;84.30;;;;;;4979330;28;20530;-68
2022/01/16 04:21:14;;;;;;;57.70;28.20;;;1.70;84.40;;;;;;4983961;28;20465;-68
2022/01/16 04:23:40;;;;;;;60.22;27.92;;;1.70;84.40;;;;;;4979510;28;20038;-66
2022/01/16 04:26:05;;;;;;;59.88;29.42;;;1.80;84.40;;;;;;4977199;28;20043;-68
2022/01/16 04:28:31;;;;;;;56.95;27.75;;;1.70;84.40;;;;;;4976663;28;20046;-67
2022/01/16 04:30:57;;;;;;;63.58;30.88;;;1.80;85.30;;;;;;4975526;28;20081;-68
2022/01/16 04:33:22;;;;;;;66.93;32.90;;;1.80;84.50;;;;;;4978401;28;20046;-67
2022/01/16 04:35:48;;;;;;;63.25;32.88;;;1.80;84.50;;;;;;4974939;28;20061;-68
2022/01/16 04:38:14;;;;;;;61.17;31.58;;;1.80;84.60;;;;;;4978655;28;20125;-67
2022/01/16 04:43:47;;;;;;;64.55;32.25;;;1.80;84.60;;;;;;4976184;28;20039;-68
2022/01/16 04:46:12;;;;;;;66.00;30.63;;;1.90;85.30;;;;;;4976782;28;20053;-68
2022/01/16 04:48:37;;;;;;;63.35;30.52;;;1.90;84.50;;;;;;4973731;28;20034;-67
2022/01/16 04:51:03;;;;;;;59.42;28.90;;;1.90;84.40;;;;;;4975296;28;20045;-68
2022/01/16 04:53:29;;;;;;;58.75;29.40;;;1.90;84.30;;;;;;4977428;28;20027;-68
2022/01/16 04:55:55;;;;;;;62.33;30.52;;;1.90;84.30;;;;;;4975874;28;20034;-67
2022/01/16 04:58:21;;;;;;;59.38;30.13;;;1.90;84.30;;;;;;4976983;28;20039;-68
2022/01/16 05:00:47;;;;;;;64.28;30.52;;;1.90;84.30;;;;;;4976240;28;20034;-68
2022/01/16 05:03:13;;;;;;;65.05;31.73;;;1.90;84.40;;;;;;4990700;28;20054;-68
2022/01/16 05:05:38;;;;;;;60.55;30.40;;;2.00;84.40;;;;;;4974319;28;20038;-68
2022/01/16 05:08:04;;;;;;;60.13;30.08;;;1.90;84.40;;;;;;4977028;28;20031;-68
2022/01/16 05:10:31;;;;;;;74.72;34.65;;;2.00;84.50;;;;;;4974261;28;20053;-67
2022/01/16 05:13:15;;;;;;;70.30;37.58;;;2.00;84.40;;;;;;4973226;28;20617;-69
2022/01/16 05:18:24;;;;;;;63.97;30.73;;;2.00;84.20;;;;;;4979145;28;20034;-68
2022/01/16 05:20:50;;;;;;;60.58;29.98;;;2.10;84.10;;;;;;4974190;28;20030;-68
2022/01/16 05:23:16;;;;;;;64.43;30.73;;;2.00;83.90;;;;;;4975597;28;20034;-68
2022/01/16 05:25:41;;;;;;;63.80;30.88;;;2.00;84.00;;;;;;4979169;28;20049;-68
2022/01/16 05:28:07;;;;;;;64.50;30.27;;;2.00;84.00;;;;;;4978898;28;20117;-68
2022/01/16 05:30:32;;;;;;;64.88;30.73;;;2.00;84.10;;;;;;4990802;28;20042;-67
2022/01/16 05:32:58;;;;;;;63.78;30.13;;;2.00;84.10;;;;;;4977740;28;20046;-68
2022/01/16 05:35:24;;;;;;;71.50;34.33;;;2.00;84.10;;;;;;4976586;28;20590;-68
2022/01/16 05:37:49;;;;;;;67.85;33.55;;;2.00;84.20;;;;;;4974170;28;20031;-68
2022/01/16 05:40:15;;;;;;;64.07;31.92;;;2.00;84.20;;;;;;4975898;28;20524;-67
2022/01/16 05:42:40;;;;;;;67.13;32.17;;;2.00;84.20;;;;;;4974649;28;20034;-69
2022/01/16 05:45:06;;;;;;;73.93;36.42;;;2.00;84.20;;;;;;4976482;28;20062;-67
2022/01/16 05:47:32;;;;;;;70.00;33.28;;;2.00;84.10;;;;;;4975050;28;20506;-68
2022/01/16 05:49:58;;;;;;;65.70;31.05;;;2.00;84.10;;;;;;4974102;28;20138;-69
2022/01/16 05:52:23;;;;;;;62.50;30.23;;;2.00;84.10;;;;;;4973549;28;20062;-68
2022/01/16 05:54:49;;;;;;;57.17;28.70;;;2.00;84.00;;;;;;4974575;28;20041;-68
2022/01/16 05:57:14;;;;;;;60.75;29.65;;;2.00;83.90;;;;;;4971666;28;20062;-68
2022/01/16 05:59:40;;;;;;;63.88;30.65;;;2.00;83.90;;;;;;4974927;28;20057;-68
2022/01/16 06:02:06;;;;;;;64.88;31.60;;;2.00;83.90;;;;;;4975470;28;20129;-68
2022/01/16 06:04:31;;;;;;;65.82;30.83;;;2.00;84.00;;;;;;4975167;28;20641;-67
2022/01/16 06:06:57;;;;;;;63.97;30.15;;;2.00;83.90;;;;;;4974710;28;20573;-68
2022/01/16 06:09:25;;;;;;;61.90;30.63;;;2.00;83.90;;;;;;4977521;28;20525;-68
2022/01/16 06:11:52;;;;;;;66.78;31.10;;;2.00;83.90;;;;;;4970500;28;20043;-68
2022/01/16 06:14:18;;;;;;;62.42;31.35;;;2.00;83.90;;;;;;4974532;28;20036;-66
2022/01/16 06:16:43;;;;;;;65.00;30.65;;;2.00;83.90;;;;;;4975777;28;21130;-68
2022/01/16 06:19:09;;;;;;;60.25;28.20;;;2.00;84.00;;;;;;4976831;28;20521;-68
2022/01/16 06:21:34;;;;;;;65.32;31.17;;;2.00;84.00;;;;;;4974546;28;20046;-69
2022/01/16 06:24:00;;;;;;;61.25;30.88;;;2.00;84.00;;;;;;4974807;28;20043;-68
2022/01/16 06:26:26;;;;;;;65.05;31.70;;;2.00;83.80;;;;;;4975511;28;20034;-68
2022/01/16 06:28:51;;;;;;;56.10;29.92;;;2.00;83.60;;;;;;4977139;28;20030;-67
2022/01/16 06:31:17;;;;;;;61.30;30.08;;;2.00;83.50;;;;;;4971883;28;20041;-68
2022/01/16 06:33:42;;;;;;;60.30;30.48;;;2.00;83.50;;;;;;4976954;28;20577;-69
2022/01/16 06:36:08;;;;;;;60.13;31.00;;;2.00;83.50;;;;;;4974072;28;20053;-68
2022/01/16 06:38:34;;;;;;;62.45;30.05;;;2.00;83.50;;;;;;4974116;28;20077;-67
2022/01/16 06:41:00;;;;;;;59.40;29.15;;;2.00;83.50;;;;;;4973712;28;20041;-68
2022/01/16 06:43:26;;;;;;;65.43;31.30;;;2.00;83.50;;;;;;4977094;28;20046;-68
2022/01/16 06:45:51;;;;;;;63.15;30.08;;;2.00;83.30;;;;;;4973143;28;20035;-68
2022/01/16 06:48:17;;;;;;;56.50;28.77;;;2.00;83.20;;;;;;4975616;28;20071;-68
2022/01/16 06:50:42;;;;;;;60.55;30.55;;;2.00;83.20;;;;;;4975519;28;20034;-68
2022/01/16 06:53:08;;;;;;;62.90;30.63;;;2.00;83.20;;;;;;4976772;28;20526;-68
2022/01/16 06:55:34;;;;;;;65.05;30.67;;;2.00;83.00;;;;;;4982894;28;20038;-68
2022/01/16 06:57:59;;;;;;;59.50;30.48;;;2.00;83.00;;;;;;4977156;28;20062;-68
2022/01/16 07:00:25;;;;;;;57.00;29.38;;;2.00;82.80;;;;;;4976737;28;20042;-66
2022/01/16 07:02:50;;;;;;;59.42;29.92;;;1.90;82.80;;;;;;4976910;28;20045;-68
2022/01/16 07:05:16;;;;;;;61.10;30.98;;;1.90;82.70;;;;;;4979105;28;20030;-69
2022/01/16 07:07:42;;;;;;;56.40;28.45;;;1.90;82.80;;;;;;4978013;28;20492;-68
2022/01/16 07:10:08;;;;;;;59.55;29.33;;;1.90;82.70;;;;;;4977297;28;20056;-68
2022/01/16 07:12:34;;;;;;;61.30;30.50;;;1.90;82.80;;;;;;4974863;28;20129;-68
2022/01/16 07:14:59;;;;;;;61.40;30.42;;;1.80;82.60;;;;;;4978471;28;20692;-68
2022/01/16 07:17:25;;;;;;;60.92;31.00;;;1.80;82.60;;;;;;4975041;28;20037;-68
2022/01/16 07:19:50;;;;;;;59.45;28.83;;;1.80;82.60;;;;;;4978861;28;20022;-67
2022/01/16 07:22:18;;;;;;;59.60;29.98;;;1.80;82.60;;;;;;4976583;28;20972;-67
2022/01/16 07:24:44;;;;;;;65.03;33.08;;;1.80;82.60;;;;;;4976528;28;20027;-67
2022/01/16 07:27:09;;;;;;;62.10;30.60;;;1.80;82.50;;;;;;4975303;28;20041;-68
2022/01/16 07:29:35;;;;;;;66.85;32.83;;;1.80;82.50;;;;;;4971019;28;20623;-67
2022/01/16 07:32:01;;;;;;;63.85;32.45;;;1.80;82.40;;;;;;4973709;28;20585;-68
2022/01/16 07:34:26;;;;;;;64.70;30.38;;;1.80;82.40;;;;;;4973673;28;20038;-67
2022/01/16 07:36:52;;;;;;;63.13;30.85;;;1.80;82.40;;;;;;4979644;28;20034;-69
2022/01/16 07:39:17;;;;;;;59.63;29.35;;;1.80;82.30;;;;;;4981077;28;20045;-67
2022/01/16 07:41:43;;;;;;;61.42;30.73;;;1.80;82.30;;;;;;4978838;28;20042;-67
2022/01/16 07:44:09;;;;;;;60.75;30.27;;;1.80;82.30;;;;;;4979963;28;20544;-68
2022/01/16 07:46:34;;;;;;;61.60;31.40;;;1.80;82.20;;;;;;4977649;28;20126;-68
2022/01/16 07:49:00;;;;;;;57.53;30.65;;;1.80;82.20;;;;;;4979468;28;20554;-68
2022/01/16 07:51:26;;;;;;;65.18;33.40;;;1.70;82.20;;;;;;4977596;28;21902;-68
2022/01/16 07:53:52;;;;;;;71.13;35.15;;;1.70;82.30;;;;;;4981038;28;20456;-69
2022/01/16 07:56:18;;;;;;;58.95;31.80;;;1.70;82.30;;;;;;4982148;28;20043;-69
2022/01/16 07:58:44;;;;;;;62.75;32.08;;;1.80;82.30;;;;;;4978084;28;20145;-69
2022/01/16 08:01:09;;;;;;;62.88;30.83;;;1.80;82.20;;;;;;4977659;28;20042;-68
2022/01/16 08:03:35;;;;;;;63.33;32.25;;;1.80;82.10;;;;;;4975215;28;20045;-68
2022/01/16 08:06:01;;;;;;;65.55;32.08;;;1.80;82.00;;;;;;4977852;28;20026;-68
2022/01/16 08:08:26;;;;;;;61.47;29.75;;;1.80;82.00;;;;;;4977093;28;20066;-69
2022/01/16 08:10:52;;;;;;;54.90;29.15;;;1.70;82.00;;;;;;4975923;28;20516;-67
2022/01/16 08:13:18;;;;;;;58.45;30.65;;;1.70;82.00;;;;;;4980128;28;20046;-69
2022/01/16 08:15:43;;;;;;;57.75;28.15;;;1.70;81.90;;;;;;4981110;28;20035;-68
2022/01/16 08:18:10;;;;;;;55.97;29.25;;;1.70;82.00;;;;;;4979868;28;20056;-68
2022/01/16 08:20:36;;;;;;;54.13;29.08;;;1.70;82.00;;;;;;4977366;28;20038;-68
2022/01/16 08:23:01;;;;;;;53.47;28.75;;;1.70;81.80;;;;;;4979545;28;20046;-68
2022/01/16 08:25:27;;;;;;;55.55;28.10;;;1.70;81.70;;;;;;4979324;28;20097;-68
2022/01/16 08:27:53;;;;;;;52.80;28.02;;;1.70;81.80;;;;;;4978875;28;20043;-68
2022/01/16 08:30:19;;;;;;;52.50;26.90;;;1.70;81.80;;;;;;4977817;28;20084;-68
2022/01/16 08:32:44;;;;;;;54.13;28.35;;;1.70;81.80;;;;;;4976305;28;20059;-68
2022/01/16 08:35:11;;;;;;;50.25;28.50;;;1.70;81.80;;;;;;4975046;28;20062;-68
2022/01/16 08:37:37;;;;;;;51.47;27.75;;;1.70;81.80;;;;;;4980799;28;20572;-68
2022/01/16 08:40:04;;;;;;;55.47;29.50;;;1.70;81.80;;;;;;4977164;28;20037;-68
2022/01/16 08:42:30;;;;;;;50.22;26.73;;;1.70;81.70;;;;;;4977853;28;20038;-68
2022/01/16 08:44:55;;;;;;;53.17;29.40;;;1.70;81.70;;;;;;4982068;28;20030;-68
2022/01/16 08:47:21;;;;;;;52.80;28.98;;;1.70;81.70;;;;;;4978553;28;20042;-68
2022/01/16 08:49:47;;;;;;;48.83;27.02;;;1.70;81.80;;;;;;4975351;28;20031;-68
2022/01/16 08:52:13;;;;;;;52.28;28.45;;;1.80;81.80;;;;;;4980159;28;20039;-68
2022/01/16 08:54:39;;;;;;;51.05;26.85;;;1.80;81.80;;;;;;4977882;28;20034;-68
2022/01/16 08:57:05;;;;;;;53.78;27.52;;;1.80;81.80;;;;;;4978848;28;20092;-68
2022/01/16 08:59:30;;;;;;;47.83;26.17;;;1.80;81.80;;;;;;4979859;28;20034;-68
2022/01/16 09:01:57;;;;;;;46.92;25.45;;;1.80;81.60;;;;;;4977943;28;20505;-68
2022/01/16 09:04:22;;;;;;;50.05;26.02;;;1.90;81.70;;;;;;4978110;28;20030;-68
2022/01/16 09:06:48;;;;;;;45.80;24.85;;;1.90;81.60;;;;;;4980271;28;20435;-68
2022/01/16 09:09:14;;;;;;;45.08;24.75;;;1.90;81.50;;;;;;4975206;28;20038;-67
2022/01/16 09:11:39;;;;;;;47.72;24.20;;;1.90;81.40;;;;;;4972627;28;20053;-68
2022/01/16 09:14:05;;;;;;;44.03;24.15;;;2.00;81.40;;;;;;4977973;28;20037;-68
2022/01/16 09:16:31;;;;;;;44.85;24.27;;;1.90;81.40;;;;;;4976869;28;20143;-67
2022/01/16 09:18:57;;;;;;;47.08;24.15;;;2.00;81.50;;;;;;4977950;28;20085;-67
2022/01/16 09:21:23;;;;;;;47.72;24.00;;;2.00;81.50;;;;;;4975392;28;20027;-68
2022/01/16 09:23:49;;;;;;;44.90;23.80;;;2.00;81.50;;;;;;4992166;28;20035;-68
2022/01/16 09:26:16;;;;;;;43.05;24.00;;;2.00;81.50;;;;;;4975943;28;20035;-68
2022/01/16 09:28:43;;;;;;;43.47;23.05;;;2.10;81.40;;;;;;4977853;28;20041;-68
2022/01/16 09:31:09;;;;;;;44.15;24.35;;;2.10;81.40;;;;;;4978603;28;20085;-69
2022/01/16 09:33:35;;;;;;;48.90;25.98;;;2.10;81.30;;;;;;4978388;28;20030;-69
2022/01/16 09:36:02;;;;;;;47.28;24.67;;;2.20;81.20;;;;;;4977416;28;20061;-69
2022/01/16 09:38:27;;;;;;;46.33;23.60;;;2.20;81.10;;;;;;4975509;28;20093;-69
2022/01/16 09:40:55;;;;;;;44.47;24.20;;;2.20;81.10;;;;;;4978095;28;20525;-69
2022/01/16 09:43:22;;;;;;;41.83;22.23;;;2.30;81.10;;;;;;4971545;28;20050;-69
2022/01/16 09:45:48;;;;;;;43.20;23.00;;;2.30;82.00;;;;;;4977355;28;20042;-68
2022/01/16 09:48:16;;;;;;;47.75;24.95;;;2.30;81.20;;;;;;4973472;28;20035;-69
2022/01/16 09:50:42;;;;;;;48.47;24.70;;;2.30;81.10;;;;;;4973349;28;20570;-68
2022/01/16 09:53:07;;;;;;;44.65;23.65;;;2.40;81.00;;;;;;4973084;28;20041;-68
2022/01/16 09:55:33;;;;;;;41.67;23.52;;;2.40;81.00;;;;;;4975105;28;20121;-69
2022/01/16 09:58:00;;;;;;;43.20;22.40;;;2.40;81.10;;;;;;4975865;28;20113;-69
2022/01/16 10:00:27;;;;;;;45.63;23.27;;;2.50;81.20;;;;;;4976294;28;20037;-69
2022/01/16 10:02:53;;;;;;;43.00;23.90;;;2.60;81.30;;;;;;4977729;28;20521;-68
2022/01/16 10:05:22;;;;;;;45.88;24.58;;;2.60;81.00;;;;;;4975907;28;20035;-68
2022/01/16 10:07:48;;;;;;;48.47;25.90;;;2.60;80.70;;;;;;4979688;28;20058;-68
2022/01/16 10:10:14;;;;;;;48.13;24.88;;;2.70;81.00;;;;;;4974070;28;20116;-68
2022/01/16 10:12:46;;;;;;;44.83;22.92;;;2.70;81.00;;;;;;4971411;28;20391;-69
2022/01/16 10:15:27;;;;;;;49.65;24.75;;;2.80;80.90;;;;;;4978225;28;20041;-68
2022/01/16 10:17:58;;;;;;;46.67;23.73;;;2.80;80.60;;;;;;4969594;28;20039;-68
2022/01/16 10:20:25;;;;;;;43.38;22.70;;;2.80;80.80;;;;;;4970902;28;20035;-69
2022/01/16 10:23:00;;;;;;;42.20;22.77;;;2.90;81.00;;;;;;4981332;28;20042;-69
2022/01/16 10:25:41;;;;;;;43.08;22.23;;;2.90;81.00;;;;;;4980203;28;20072;-69
2022/01/16 10:28:26;;;;;;;43.05;22.80;;;3.00;81.10;;;;;;4981250;28;20034;-68
2022/01/16 10:30:53;;;;;;;40.65;20.98;;;3.10;80.80;;;;;;4989412;28;20440;-69
2022/01/16 10:33:22;;;;;;;41.30;21.60;;;3.10;80.90;;;;;;4986039;28;20035;-69
2022/01/16 10:35:50;;;;;;;39.45;21.17;;;3.20;80.80;;;;;;4979410;28;20026;-69
2022/01/16 10:38:34;;;;;;;42.00;22.80;;;3.30;80.80;;;;;;4986861;28;20112;-69
2022/01/16 10:41:00;;;;;;;45.95;21.85;;;3.40;80.20;;;;;;4983033;28;20038;-69
2022/01/16 10:43:43;;;;;;;41.97;22.02;;;3.40;80.30;;;;;;4983553;28;20045;-69
2022/01/16 10:46:11;;;;;;;39.85;20.73;;;3.40;79.70;;;;;;4984734;28;20049;-69
2022/01/16 10:48:37;;;;;;;43.75;21.73;;;3.50;80.20;;;;;;4984758;28;20039;-68
2022/01/16 10:51:03;;;;;;;38.28;20.85;;;3.60;80.30;;;;;;4983561;28;20088;-69
2022/01/16 10:53:31;;;;;;;41.25;21.10;;;3.60;80.30;;;;;;4983624;28;20057;-69
2022/01/16 10:55:59;;;;;;;39.85;21.27;;;3.70;80.30;;;;;;4984848;28;20035;-70
2022/01/16 10:58:36;;;;;;;42.75;22.08;;;3.80;80.20;;;;;;4985004;28;20396;-69
2022/01/16 11:01:08;;;;;;;43.95;23.30;;;3.90;79.90;;;;;;4985257;28;20038;-69
2022/01/16 11:03:46;;;;;;;44.28;23.83;;;3.90;79.60;;;;;;4986293;28;20042;-69
2022/01/16 11:06:16;;;;;;;44.17;23.50;;;3.90;79.10;;;;;;4984337;28;20034;-69
2022/01/16 11:08:53;;;;;;;40.63;21.85;;;4.00;79.50;;;;;;4982457;28;20626;-69
2022/01/16 11:11:22;;;;;;;41.25;21.77;;;4.00;79.20;;;;;;4983483;28;20035;-69
2022/01/16 11:13:50;;;;;;;39.35;22.15;;;4.00;79.40;;;;;;4984873;28;20034;-69
2022/01/16 11:16:16;;;;;;;38.28;20.45;;;4.10;79.20;;;;;;4984701;28;20090;-69
2022/01/16 11:18:48;;;;;;;38.17;20.80;;;4.10;79.10;;;;;;4984868;28;20506;-69
2022/01/16 11:21:19;;;;;;;38.08;20.98;;;4.20;79.20;;;;;;4984170;28;20117;-69
2022/01/16 11:26:30;;;;;;;37.53;20.30;;;4.30;78.80;;;;;;4984414;28;20048;-69
2022/01/16 11:28:57;;;;;;;38.47;20.95;;;4.30;79.10;;;;;;4988367;28;20031;-69
2022/01/16 11:31:23;;;;;;;36.63;19.90;;;4.40;79.00;;;;;;4983875;28;20061;-69
2022/01/16 11:33:49;;;;;;;35.80;19.67;;;4.40;78.60;;;;;;4983897;28;20030;-69
2022/01/16 11:36:25;;;;;;;33.90;19.17;;;4.50;78.60;;;;;;4984797;28;20129;-70
2022/01/16 11:38:59;;;;;;;32.22;18.77;;;4.60;78.60;;;;;;4984254;28;20034;-70
2022/01/16 11:41:31;;;;;;;36.95;20.63;;;4.60;79.50;;;;;;4983047;28;20121;-69
2022/01/16 11:43:57;;;;;;;33.58;18.60;;;4.70;78.80;;;;;;4981067;28;20043;-70
2022/01/16 11:46:24;;;;;;;32.17;18.27;;;4.80;78.60;;;;;;4981207;28;20050;-69
2022/01/16 11:49:00;;;;;;;35.90;19.48;;;4.90;78.90;;;;;;4980324;28;20031;-70
2022/01/16 11:51:35;;;;;;;28.00;17.17;;;5.00;78.30;;;;;;4982222;28;20042;-70
2022/01/16 11:54:20;;;;;;;33.33;18.08;;;5.10;78.10;;;;;;4981432;28;20031;-70
2022/01/16 11:56:46;;;;;;;30.23;18.20;;;5.20;78.10;;;;;;4979446;28;20046;-68
2022/01/16 11:59:11;;;;;;;34.60;19.17;;;5.30;78.50;;;;;;4978963;28;20510;-69
2022/01/16 12:01:53;;;;;;;31.35;18.48;;;5.40;78.00;;;;;;4970653;28;20430;-68
2022/01/16 12:04:31;;;;;;;31.27;18.02;;;5.40;76.90;;;;;;4979911;28;20429;-69
2022/01/16 12:07:20;;;;;;;37.75;20.63;;;5.50;76.80;;;;;;4981411;28;20088;-69
2022/01/16 12:09:50;;;;;;;32.50;18.17;;;5.60;76.60;;;;;;4980779;28;20178;-69
2022/01/16 12:12:16;;;;;;;31.48;17.77;;;5.70;77.10;;;;;;4978710;28;20533;-70
2022/01/16 12:14:59;;;;;;;28.77;17.27;;;5.70;76.40;;;;;;4981875;28;20074;-69
2022/01/16 12:17:47;;;;;;;28.90;17.33;;;5.70;75.30;;;;;;4980280;28;20027;-69
2022/01/16 12:22:43;;;;;;;27.90;17.35;;;5.80;75.20;;;;;;4979974;28;20414;-69
2022/01/16 12:25:45;;;;;;;31.45;18.10;;;5.70;75.20;;;;;;4980895;28;20513;-69
2022/01/16 12:28:10;;;;;;;30.83;17.88;;;5.70;74.00;;;;;;4978024;28;20609;-69
2022/01/16 12:31:03;;;;;;;36.30;20.67;;;5.70;75.20;;;;;;4978803;28;20127;-69
2022/01/16 12:33:45;;;;;;;32.83;17.77;;;5.70;75.10;;;;;;4981733;28;20023;-69
2022/01/16 12:36:13;;;;;;;31.50;18.25;;;5.70;74.90;;;;;;4980195;28;20050;-68
2022/01/16 12:38:40;;;;;;;29.80;17.55;;;5.70;75.30;;;;;;4995417;28;20042;-66
2022/01/16 12:41:12;;;;;;;28.08;16.80;;;5.80;75.30;;;;;;4979441;28;20118;-69
2022/01/16 12:43:44;;;;;;;26.35;15.65;;;5.80;76.10;;;;;;4979462;28;20398;-68
2022/01/16 12:46:16;;;;;;;28.17;16.10;;;5.80;75.30;;;;;;4979508;28;20121;-69
2022/01/16 12:48:50;;;;;;;28.58;16.08;;;5.90;75.30;;;;;;4980659;28;20093;-69
2022/01/16 12:51:16;;;;;;;27.75;16.35;;;5.90;75.00;;;;;;4978782;28;20038;-68
2022/01/16 12:53:47;;;;;;;25.50;16.10;;;5.90;75.00;;;;;;4979407;28;20038;-68
2022/01/16 12:56:26;;;;;;;26.13;15.40;;;6.00;75.00;;;;;;4979134;28;20035;-69
2022/01/16 12:59:06;;;;;;;24.75;15.27;;;6.00;74.70;;;;;;4980143;28;20033;-69
2022/01/16 13:01:32;;;;;;;26.15;15.07;;;6.10;74.90;;;;;;4985227;28;20089;-69
2022/01/16 13:03:58;;;;;;;27.27;16.42;;;6.10;74.90;;;;;;4979277;28;20121;-69
2022/01/16 13:06:26;;;;;;;30.00;17.90;;;6.20;74.80;;;;;;4985222;28;20117;-69
2022/01/16 13:09:06;;;;;;;27.00;15.88;;;6.20;74.70;;;;;;4985500;28;20038;-69
2022/01/16 13:11:42;;;;;;;26.75;16.00;;;6.30;74.40;;;;;;4978429;28;20045;-69
2022/01/16 13:14:11;;;;;;;25.98;15.27;;;6.30;73.60;;;;;;4985159;28;20110;-68
2022/01/16 13:16:43;;;;;;;24.45;14.07;;;6.40;73.80;;;;;;4979679;28;20031;-68
2022/01/16 13:19:18;;;;;;;24.27;14.38;;;6.40;73.40;;;;;;4979851;28;20048;-69
2022/01/16 13:24:57;;;;;;;24.67;14.57;;;6.40;72.90;;;;;;4978306;28;20042;-69
2022/01/16 13:27:25;;;;;;;26.02;15.80;;;6.50;72.70;;;;;;4977476;28;20031;-68